createdAt,value
2022-07-29T00:00:54.995Z,94808.19
2022-07-29T00:02:56.967Z,94810.16
2022-07-29T00:04:59.992Z,94822.22
2022-07-29T00:07:01.758Z,94827.09
2022-07-29T00:09:03.798Z,94830.59
2022-07-29T00:11:06.110Z,94826.75
2022-07-29T00:13:09.066Z,94826.16
2022-07-29T00:15:11.166Z,94826.75
2022-07-29T00:17:14.885Z,94828.97
2022-07-29T00:19:22.309Z,94823.19
2022-07-29T00:21:25.088Z,94814.34
2022-07-29T00:23:26.904Z,94814.34
2022-07-29T00:25:28.575Z,94806.59
2022-07-29T00:27:30.258Z,94813.09
2022-07-29T00:29:34.181Z,94815.91
2022-07-29T00:31:36.584Z,94819.53
2022-07-29T00:33:38.398Z,94818.00
2022-07-29T00:35:45.959Z,94814.59
2022-07-29T00:37:47.777Z,94815.22
2022-07-29T00:39:49.609Z,94815.41
2022-07-29T00:41:51.353Z,94820.88
2022-07-29T00:43:53.064Z,94824.00
2022-07-29T00:45:54.827Z,94821.00
2022-07-29T00:47:56.848Z,94827.09
2022-07-29T00:49:58.784Z,94832.25
2022-07-29T00:52:03.299Z,94836.84
2022-07-29T00:54:05.918Z,94838.84
2022-07-29T00:56:07.632Z,94837.66
2022-07-29T00:58:09.874Z,94827.69
2022-07-29T01:00:14.848Z,94825.00
2022-07-29T01:02:16.692Z,94827.91
2022-07-29T01:04:18.768Z,94832.75
2022-07-29T01:06:21.270Z,94820.91
2022-07-29T01:08:24.026Z,94830.75
2022-07-29T01:10:26.116Z,94817.09
2022-07-29T01:12:28.619Z,94817.66
2022-07-29T01:14:31.030Z,94817.72
2022-07-29T01:16:34.021Z,94813.03
2022-07-29T01:18:40.724Z,94808.72
2022-07-29T01:21:07.255Z,94811.94
2022-07-29T01:23:44.144Z,94804.09
2022-07-29T01:26:01.761Z,94804.75
2022-07-29T01:28:04.656Z,94803.59
2022-07-29T01:30:07.489Z,94798.78
2022-07-29T01:32:22.579Z,94794.72
2022-07-29T01:34:46.919Z,94795.41
2022-07-29T01:36:57.728Z,94796.97
2022-07-29T01:39:05.917Z,94795.88
2022-07-29T01:41:10.979Z,94793.34
2022-07-29T01:43:15.077Z,94791.44
2022-07-29T01:45:21.036Z,94792.38
2022-07-29T01:47:26.934Z,94796.59
2022-07-29T01:49:31.471Z,94795.13
2022-07-29T01:51:39.563Z,94794.09
2022-07-29T01:54:05.235Z,94790.69
2022-07-29T01:56:08.103Z,94790.31
2022-07-29T01:58:10.099Z,94790.31
2022-07-29T02:00:12.495Z,94789.28
2022-07-29T02:02:16.613Z,94791.25
2022-07-29T02:04:29.365Z,94786.09
2022-07-29T02:06:32.755Z,94782.75
2022-07-29T02:08:34.899Z,94786.25
2022-07-29T02:10:37.282Z,94774.91
2022-07-29T02:12:40.256Z,94784.09
2022-07-29T02:14:46.070Z,94779.09
2022-07-29T02:16:51.290Z,94781.19
2022-07-29T02:18:54.890Z,94772.59
2022-07-29T02:20:56.489Z,94773.66
2022-07-29T02:23:00.744Z,94775.50
2022-07-29T02:25:03.179Z,94769.81
2022-07-29T02:27:05.621Z,94773.75
2022-07-29T02:29:07.967Z,94772.09
2022-07-29T02:31:10.618Z,94767.34
2022-07-29T02:33:15.087Z,94762.63
2022-07-29T02:35:17.244Z,94754.88
2022-07-29T02:37:19.626Z,94756.69
2022-07-29T02:39:21.648Z,94758.56
2022-07-29T02:41:33.025Z,94754.63
2022-07-29T02:43:35.770Z,94748.59
2022-07-29T02:45:37.685Z,94753.50
2022-07-29T02:47:44.890Z,94751.22
2022-07-29T02:50:00.845Z,94749.94
2022-07-29T02:52:25.000Z,94747.84
2022-07-29T02:54:40.465Z,94751.38
2022-07-29T02:56:43.897Z,94750.59
2022-07-29T02:58:51.082Z,94752.28
2022-07-29T03:00:53.776Z,94749.25
2022-07-29T03:02:57.966Z,94744.97
2022-07-29T03:05:01.144Z,94750.66
2022-07-29T03:07:03.391Z,94752.59
2022-07-29T03:09:10.613Z,94756.13
2022-07-29T03:11:15.261Z,94752.47
2022-07-29T03:13:17.236Z,94750.13
2022-07-29T03:15:19.698Z,94747.88
2022-07-29T03:17:22.614Z,94754.63
2022-07-29T03:19:24.439Z,94759.91
2022-07-29T03:21:26.101Z,94762.63
2022-07-29T03:23:28.977Z,94767.47
2022-07-29T03:25:36.989Z,94764.06
2022-07-29T03:27:38.656Z,94757.38
2022-07-29T03:29:40.279Z,94762.28
2022-07-29T03:31:45.293Z,94762.72
2022-07-29T03:33:48.172Z,94767.25
2022-07-29T03:35:49.810Z,94771.97
2022-07-29T03:37:51.561Z,94761.09
2022-07-29T03:39:56.421Z,94772.78
2022-07-29T03:41:59.753Z,94773.00
2022-07-29T03:44:01.936Z,94772.56
2022-07-29T03:46:05.315Z,94774.56
2022-07-29T03:48:14.607Z,94772.09
2022-07-29T03:50:16.796Z,94767.03
2022-07-29T03:52:18.665Z,94773.38
2022-07-29T03:54:21.427Z,94764.94
2022-07-29T03:56:24.183Z,94773.88
2022-07-29T03:58:27.618Z,94781.44
2022-07-29T04:00:29.893Z,94780.78
2022-07-29T04:02:33.019Z,94784.09
2022-07-29T04:04:37.770Z,94782.34
2022-07-29T04:06:43.766Z,94781.59
2022-07-29T04:08:45.416Z,94785.13
2022-07-29T04:10:48.534Z,94780.50
2022-07-29T04:12:50.874Z,94787.13
2022-07-29T04:14:52.556Z,94782.88
2022-07-29T04:16:54.175Z,94779.56
2022-07-29T04:18:55.826Z,94776.72
2022-07-29T04:21:00.101Z,94781.66
2022-07-29T04:23:01.758Z,94772.69
2022-07-29T04:25:04.367Z,94774.31
2022-07-29T04:27:06.345Z,94774.09
2022-07-29T04:29:07.976Z,94774.59
2022-07-29T04:31:10.498Z,94777.94
2022-07-29T04:33:13.046Z,94779.88
2022-07-29T04:35:14.696Z,94784.69
2022-07-29T04:37:16.349Z,94787.84
2022-07-29T04:39:22.794Z,94788.09
2022-07-29T04:41:32.552Z,94788.25
2022-07-29T04:43:36.723Z,94783.50
2022-07-29T04:45:38.584Z,94789.19
2022-07-29T04:47:41.948Z,94794.97
2022-07-29T04:49:43.541Z,94788.63
2022-07-29T04:51:45.154Z,94799.31
2022-07-29T04:53:46.829Z,94796.75
2022-07-29T04:55:48.565Z,94800.16
2022-07-29T04:57:50.186Z,94800.00
2022-07-29T04:59:51.826Z,94800.31
2022-07-29T05:01:53.525Z,94801.44
2022-07-29T05:04:00.180Z,94795.28
2022-07-29T05:06:02.355Z,94801.78
2022-07-29T05:08:04.413Z,94798.81
2022-07-29T05:10:06.555Z,94804.06
2022-07-29T05:12:08.402Z,94795.25
2022-07-29T05:14:10.142Z,94798.19
2022-07-29T05:16:11.935Z,94797.69
2022-07-29T05:18:13.843Z,94800.81
2022-07-29T05:20:15.549Z,94806.28
2022-07-29T05:22:17.217Z,94808.03
2022-07-29T05:24:19.382Z,94810.69
2022-07-29T05:26:21.346Z,94813.16
2022-07-29T05:28:23.322Z,94803.75
2022-07-29T05:30:25.088Z,94798.06
2022-07-29T05:32:26.768Z,94805.16
2022-07-29T05:34:28.440Z,94798.53
2022-07-29T05:36:30.160Z,94801.91
2022-07-29T05:38:31.814Z,94806.66
2022-07-29T05:40:33.594Z,94795.72
2022-07-29T05:42:35.689Z,94806.22
2022-07-29T05:44:38.875Z,94803.41
2022-07-29T05:46:40.724Z,94808.31
2022-07-29T05:48:42.686Z,94803.66
2022-07-29T05:50:44.502Z,94805.03
2022-07-29T05:52:46.214Z,94809.63
2022-07-29T05:54:48.295Z,94814.38
2022-07-29T05:56:49.970Z,94819.59
2022-07-29T05:58:52.569Z,94815.97
2022-07-29T06:00:54.253Z,94813.59
2022-07-29T06:02:55.887Z,94822.09
2022-07-29T06:04:57.668Z,94817.28
2022-07-29T06:06:59.381Z,94821.19
2022-07-29T06:09:02.023Z,94817.09
2022-07-29T06:11:14.665Z,94816.53
2022-07-29T06:13:17.118Z,94814.03
2022-07-29T06:15:18.943Z,94817.19
2022-07-29T06:17:20.648Z,94813.03
2022-07-29T06:19:22.439Z,94813.13
2022-07-29T06:21:24.129Z,94818.78
2022-07-29T06:23:25.786Z,94817.00
2022-07-29T06:25:30.220Z,94815.94
2022-07-29T06:27:32.012Z,94824.25
2022-07-29T06:29:33.669Z,94811.03
2022-07-29T06:31:35.503Z,94811.28
2022-07-29T06:33:37.313Z,94816.06
2022-07-29T06:35:42.139Z,94820.00
2022-07-29T06:37:44.332Z,94814.97
2022-07-29T06:39:48.720Z,94808.72
2022-07-29T06:41:51.583Z,94807.69
2022-07-29T06:43:54.606Z,94808.63
2022-07-29T06:46:00.523Z,94810.97
2022-07-29T06:48:02.258Z,94803.44
2022-07-29T06:50:05.412Z,94809.47
2022-07-29T06:52:09.528Z,94807.66
2022-07-29T06:54:11.285Z,94802.78
2022-07-29T06:56:15.183Z,94808.88
2022-07-29T06:58:18.928Z,94801.63
2022-07-29T07:00:20.805Z,94805.31
2022-07-29T07:02:22.493Z,94801.28
2022-07-29T07:04:24.296Z,94801.72
2022-07-29T07:06:25.990Z,94806.56
2022-07-29T07:08:27.737Z,94800.72
2022-07-29T07:10:29.401Z,94795.47
2022-07-29T07:12:31.075Z,94791.09
2022-07-29T07:14:33.019Z,94799.75
2022-07-29T07:16:34.668Z,94799.56
2022-07-29T07:18:36.353Z,94792.59
2022-07-29T07:20:38.189Z,94798.78
2022-07-29T07:22:39.815Z,94801.03
2022-07-29T07:24:41.450Z,94795.66
2022-07-29T07:26:43.196Z,94792.53
2022-07-29T07:28:44.911Z,94799.88
2022-07-29T07:30:46.774Z,94799.28
2022-07-29T07:32:48.668Z,94796.31
2022-07-29T07:34:50.310Z,94789.72
2022-07-29T07:36:51.944Z,94795.69
2022-07-29T07:38:53.619Z,94796.16
2022-07-29T07:40:55.264Z,94794.94
2022-07-29T07:42:56.965Z,94789.91
2022-07-29T07:45:13.016Z,94798.31
2022-07-29T07:47:21.358Z,94798.81
2022-07-29T07:49:24.373Z,94795.31
2022-07-29T07:51:26.098Z,94791.63
2022-07-29T07:53:27.834Z,94794.25
2022-07-29T07:55:42.438Z,94790.97
2022-07-29T07:57:51.389Z,94792.19
2022-07-29T07:59:53.068Z,94789.06
2022-07-29T08:01:55.802Z,94787.28
2022-07-29T08:03:57.977Z,94786.97
2022-07-29T08:05:59.652Z,94786.72
2022-07-29T08:08:01.363Z,94785.56
2022-07-29T08:10:03.608Z,94791.13
2022-07-29T08:12:06.708Z,94791.00
2022-07-29T08:14:08.404Z,94778.47
2022-07-29T08:16:13.445Z,94782.06
2022-07-29T08:18:15.289Z,94782.13
2022-07-29T08:20:16.950Z,94789.19
2022-07-29T08:22:20.250Z,94783.31
2022-07-29T08:24:40.837Z,94783.81
2022-07-29T08:26:43.507Z,94781.56
2022-07-29T08:28:46.850Z,94786.41
2022-07-29T08:30:48.731Z,94788.38
2022-07-29T08:32:54.993Z,94789.50
2022-07-29T08:34:57.582Z,94790.59
2022-07-29T08:36:59.760Z,94784.47
2022-07-29T08:39:02.766Z,94786.06
2022-07-29T08:41:04.393Z,94781.03
2022-07-29T08:43:10.082Z,94792.59
2022-07-29T08:45:11.894Z,94779.44
2022-07-29T08:47:15.186Z,94781.91
2022-07-29T08:49:17.197Z,94776.19
2022-07-29T08:51:20.688Z,94773.16
2022-07-29T08:53:22.994Z,94773.19
2022-07-29T08:55:24.824Z,94783.78
2022-07-29T08:57:26.712Z,94772.22
2022-07-29T08:59:31.276Z,94780.06
2022-07-29T09:01:35.740Z,94775.22
2022-07-29T09:03:40.046Z,94774.94
2022-07-29T09:05:47.859Z,94776.56
2022-07-29T09:07:51.148Z,94768.78
2022-07-29T09:09:52.941Z,94760.19
2022-07-29T09:11:58.116Z,94765.28
2022-07-29T09:14:00.389Z,94765.00
2022-07-29T09:16:08.643Z,94766.31
2022-07-29T09:18:20.341Z,94767.94
2022-07-29T09:20:51.150Z,94755.19
2022-07-29T09:22:54.583Z,94754.34
2022-07-29T09:24:56.404Z,94761.06
2022-07-29T09:26:58.130Z,94759.75
2022-07-29T09:29:00.689Z,94759.72
2022-07-29T09:31:03.543Z,94755.13
2022-07-29T09:33:05.211Z,94765.97
2022-07-29T09:35:36.173Z,94754.44
2022-07-29T09:37:37.817Z,94757.13
2022-07-29T09:39:46.737Z,94758.81
2022-07-29T09:41:54.223Z,94747.72
2022-07-29T09:43:57.479Z,94749.31
2022-07-29T09:46:12.304Z,94748.16
2022-07-29T09:48:19.871Z,94746.72
2022-07-29T09:50:24.982Z,94746.94
2022-07-29T09:52:27.965Z,94740.47
2022-07-29T09:54:29.638Z,94742.81
2022-07-29T09:56:41.573Z,94745.50
2022-07-29T09:58:43.181Z,94743.56
2022-07-29T10:00:46.974Z,94735.84
2022-07-29T10:02:49.293Z,94729.69
2022-07-29T10:04:52.078Z,94728.72
2022-07-29T10:07:04.798Z,94723.63
2022-07-29T10:09:11.951Z,94726.34
2022-07-29T10:11:20.323Z,94721.69
2022-07-29T10:13:22.075Z,94716.13
2022-07-29T10:15:27.788Z,94723.66
2022-07-29T10:17:29.524Z,94713.16
2022-07-29T10:19:32.465Z,94719.78
2022-07-29T10:21:35.317Z,94711.94
2022-07-29T10:23:46.817Z,94713.44
2022-07-29T10:25:49.133Z,94709.72
2022-07-29T10:27:54.627Z,94707.09
2022-07-29T10:29:56.342Z,94706.28
2022-07-29T10:32:22.775Z,94695.94
2022-07-29T10:34:46.469Z,94709.34
2022-07-29T10:37:35.359Z,94698.25
2022-07-29T10:40:31.966Z,94696.94
2022-07-29T10:42:41.161Z,94702.16
2022-07-29T10:44:44.243Z,94691.22
2022-07-29T10:46:46.382Z,94691.41
2022-07-29T10:49:11.421Z,94694.94
2022-07-29T10:51:16.781Z,94679.16
2022-07-29T10:53:19.859Z,94682.81
2022-07-29T10:55:39.447Z,94674.38
2022-07-29T10:58:26.361Z,94674.44
2022-07-29T11:00:30.510Z,94670.44
2022-07-29T11:02:41.763Z,94668.69
2022-07-29T11:04:45.231Z,94662.59
2022-07-29T11:07:15.155Z,94657.72
2022-07-29T11:11:43.972Z,94660.00
2022-07-29T11:13:57.057Z,94661.41
2022-07-29T11:15:59.333Z,94655.66
2022-07-29T11:18:03.886Z,94662.94
2022-07-29T11:20:43.453Z,94657.59
2022-07-29T11:22:47.361Z,94656.03
2022-07-29T11:25:17.792Z,94653.19
2022-07-29T11:27:21.991Z,94650.50
2022-07-29T11:29:24.191Z,94647.19
2022-07-29T11:31:44.366Z,94650.25
2022-07-29T11:33:55.931Z,94653.06
2022-07-29T11:36:16.651Z,94655.16
2022-07-29T11:41:25.320Z,94649.19
2022-07-29T11:43:50.600Z,94645.28
2022-07-29T11:45:52.696Z,94645.47
2022-07-29T11:48:28.955Z,94640.06
2022-07-29T11:50:35.391Z,94632.81
2022-07-29T11:52:49.683Z,94642.53
2022-07-29T11:54:58.463Z,94630.97
2022-07-29T11:57:02.573Z,94638.94
2022-07-29T11:59:08.355Z,94635.19
2022-07-29T12:01:15.082Z,94638.28
2022-07-29T12:03:35.517Z,94634.53
2022-07-29T12:05:48.418Z,94635.78
2022-07-29T12:07:53.599Z,94634.25
2022-07-29T12:09:56.813Z,94632.69
2022-07-29T12:12:04.764Z,94633.34
2022-07-29T12:14:07.084Z,94633.72
2022-07-29T12:16:08.848Z,94626.41
2022-07-29T12:18:18.936Z,94626.59
2022-07-29T12:20:28.991Z,94631.34
2022-07-29T12:22:41.374Z,94635.53
2022-07-29T12:24:46.261Z,94628.34
2022-07-29T12:26:56.040Z,94628.94
2022-07-29T12:28:57.768Z,94628.59
2022-07-29T12:31:04.846Z,94624.81
2022-07-29T12:33:21.055Z,94621.06
2022-07-29T12:35:23.139Z,94619.13
2022-07-29T12:37:40.676Z,94623.44
2022-07-29T12:39:44.602Z,94616.31
2022-07-29T12:41:47.290Z,94613.72
2022-07-29T12:43:55.469Z,94612.44
2022-07-29T12:45:58.224Z,94615.13
2022-07-29T12:48:00.037Z,94619.47
2022-07-29T12:50:22.125Z,94616.94
2022-07-29T12:52:30.660Z,94607.13
2022-07-29T12:54:32.355Z,94602.50
2022-07-29T12:56:43.702Z,94605.53
2022-07-29T12:58:50.825Z,94605.00
2022-07-29T13:01:01.371Z,94601.41
2022-07-29T13:03:03.235Z,94604.34
2022-07-29T13:05:09.923Z,94593.25
2022-07-29T13:07:12.841Z,94591.25
2022-07-29T13:09:19.213Z,94592.84
2022-07-29T13:11:44.026Z,94593.44
2022-07-29T13:14:03.140Z,94576.28
2022-07-29T13:16:09.105Z,94585.31
2022-07-29T13:18:33.189Z,94579.81
2022-07-29T13:20:34.967Z,94582.34
2022-07-29T13:22:37.060Z,94574.22
2022-07-29T13:24:55.055Z,94576.00
2022-07-29T13:26:56.795Z,94570.81
2022-07-29T13:28:58.669Z,94565.88
2022-07-29T13:31:00.832Z,94572.41
2022-07-29T13:33:02.617Z,94564.88
2022-07-29T13:35:08.809Z,94563.47
2022-07-29T13:37:10.475Z,94565.38
2022-07-29T13:39:13.647Z,94552.63
2022-07-29T13:41:15.324Z,94554.63
2022-07-29T13:43:17.053Z,94549.91
2022-07-29T13:45:18.801Z,94560.97
2022-07-29T13:47:21.428Z,94553.03
2022-07-29T13:49:23.717Z,94555.72
2022-07-29T13:51:25.493Z,94554.63
2022-07-29T13:53:28.080Z,94565.75
2022-07-29T13:55:29.733Z,94561.44
2022-07-29T13:57:31.737Z,94561.84
2022-07-29T13:59:33.545Z,94564.44
2022-07-29T14:01:36.334Z,94556.00
2022-07-29T14:03:41.755Z,94555.63
2022-07-29T14:05:47.458Z,94558.81
2022-07-29T14:07:49.283Z,94564.03
2022-07-29T14:09:51.284Z,94555.81
2022-07-29T14:11:53.883Z,94565.44
2022-07-29T14:13:55.512Z,94554.78
2022-07-29T14:15:57.152Z,94564.84
2022-07-29T14:17:58.859Z,94555.47
2022-07-29T14:20:00.509Z,94556.47
2022-07-29T14:22:04.097Z,94556.19
2022-07-29T14:24:09.288Z,94555.69
2022-07-29T14:26:21.714Z,94555.00
2022-07-29T14:28:26.011Z,94555.22
2022-07-29T14:30:27.722Z,94557.50
2022-07-29T14:32:30.181Z,94561.63
2022-07-29T14:34:32.324Z,94553.50
2022-07-29T14:36:33.982Z,94557.19
2022-07-29T14:38:36.065Z,94554.97
2022-07-29T14:40:37.842Z,94553.69
2022-07-29T14:42:40.025Z,94564.47
2022-07-29T14:44:42.577Z,94555.56
2022-07-29T14:46:44.623Z,94558.69
2022-07-29T14:48:50.262Z,94551.50
2022-07-29T14:50:51.908Z,94560.81
2022-07-29T14:52:54.105Z,94549.34
2022-07-29T14:54:55.768Z,94551.84
2022-07-29T14:56:58.321Z,94551.91
2022-07-29T14:59:00.329Z,94554.91
2022-07-29T15:01:02.251Z,94558.28
2022-07-29T15:03:04.885Z,94556.00
2022-07-29T15:05:06.919Z,94546.84
2022-07-29T15:07:09.308Z,94550.56
2022-07-29T15:09:11.117Z,94550.88
2022-07-29T15:11:13.199Z,94547.97
2022-07-29T15:13:14.822Z,94555.63
2022-07-29T15:15:16.552Z,94556.00
2022-07-29T15:17:18.230Z,94546.00
2022-07-29T15:19:21.077Z,94544.78
2022-07-29T15:21:22.772Z,94549.63
2022-07-29T15:23:24.447Z,94541.78
2022-07-29T15:25:28.376Z,94545.53
2022-07-29T15:27:30.161Z,94544.13
2022-07-29T15:29:31.859Z,94536.72
2022-07-29T15:31:33.579Z,94538.47
2022-07-29T15:33:35.215Z,94537.78
2022-07-29T15:35:40.586Z,94542.72
2022-07-29T15:37:49.107Z,94535.47
2022-07-29T15:39:51.355Z,94541.31
2022-07-29T15:41:53.302Z,94534.03
2022-07-29T17:13:47.969Z,94551.84
2022-07-29T17:15:49.842Z,94546.66
2022-07-29T17:17:55.007Z,94548.16
2022-07-29T17:19:57.624Z,94545.38
2022-07-29T17:22:07.003Z,94544.22
2022-07-29T17:24:12.062Z,94554.69
2022-07-29T17:26:13.854Z,94559.81
2022-07-29T17:28:15.864Z,94558.19
2022-07-29T17:30:18.361Z,94556.06
2022-07-29T17:32:20.115Z,94560.94
2022-07-29T17:34:21.817Z,94558.03
2022-07-29T17:36:23.789Z,94564.84
2022-07-29T17:38:25.568Z,94565.38
2022-07-29T17:40:27.529Z,94566.75
2022-07-29T17:42:29.183Z,94569.75
2022-07-29T17:44:31.026Z,94563.31
2022-07-29T17:46:33.963Z,94570.38
2022-07-29T17:48:36.316Z,94566.63
2022-07-29T17:50:38.105Z,94561.00
2022-07-29T17:52:40.841Z,94565.06
2022-07-29T17:54:42.486Z,94560.22
2022-07-29T17:56:44.114Z,94559.16
2022-07-29T17:58:47.563Z,94558.88
2022-07-29T18:00:49.420Z,94562.38
2022-07-29T18:02:51.150Z,94574.25
2022-07-29T18:04:53.017Z,94565.13
2022-07-29T18:06:54.688Z,94569.16
2022-07-29T18:08:56.400Z,94571.88
2022-07-29T18:10:58.077Z,94574.28
2022-07-29T18:12:59.774Z,94569.19
2022-07-29T18:15:01.431Z,94574.84
2022-07-29T18:17:03.252Z,94577.53
2022-07-29T18:19:04.970Z,94579.97
2022-07-29T18:21:07.068Z,94577.28
2022-07-29T18:23:08.931Z,94581.06
2022-07-29T18:25:11.951Z,94588.31
2022-07-29T18:27:13.648Z,94588.31
2022-07-29T18:29:15.335Z,94582.41
2022-07-29T18:31:17.087Z,94586.97
2022-07-29T18:33:21.703Z,94591.03
2022-07-29T18:35:24.206Z,94596.41
2022-07-29T18:38:02.283Z,94595.88
2022-07-29T18:39:47.470Z,94593.19
2022-07-29T18:41:51.349Z,94597.22
2022-07-29T18:43:53.256Z,94593.72
2022-07-29T18:45:56.351Z,94595.88
2022-07-29T18:47:58.849Z,94603.94
2022-07-29T18:50:00.812Z,94601.81
2022-07-29T18:52:02.479Z,94606.38
2022-07-29T18:54:05.601Z,94614.47
2022-07-29T18:56:07.265Z,94613.09
2022-07-29T18:58:08.887Z,94611.47
2022-07-29T19:00:12.000Z,94609.31
2022-07-29T19:02:16.661Z,94608.53
2022-07-29T19:04:18.823Z,94610.66
2022-07-29T19:06:24.060Z,94621.69
2022-07-29T19:08:27.443Z,94616.88
2022-07-29T19:10:29.592Z,94615.78
2022-07-29T19:12:31.412Z,94621.16
2022-07-29T19:14:33.107Z,94624.94
2022-07-29T19:16:35.040Z,94621.69
2022-07-29T19:18:36.739Z,94625.47
2022-07-29T19:20:39.172Z,94621.16
2022-07-29T19:22:40.853Z,94628.66
2022-07-29T19:24:42.585Z,94627.59
2022-07-29T19:26:47.060Z,94631.91
2022-07-29T19:28:49.221Z,94627.59
2022-07-29T19:30:51.171Z,94642.09
2022-07-29T19:32:52.838Z,94636.72
2022-07-29T19:35:13.286Z,94637.81
2022-07-29T19:37:14.952Z,94636.72
2022-07-29T19:39:16.597Z,94642.34
2022-07-29T19:41:18.304Z,94642.28
2022-07-29T19:43:49.525Z,94644.44
2022-07-29T19:45:41.714Z,94645.47
2022-07-29T19:47:43.631Z,94647.38
2022-07-29T19:49:45.343Z,94651.41
2022-07-29T19:51:46.960Z,94644.72
2022-07-29T19:53:49.468Z,94646.88
2022-07-29T19:55:51.150Z,94644.69
2022-07-29T19:57:53.206Z,94644.63
2022-07-29T19:59:54.861Z,94642.50
2022-07-29T20:01:57.952Z,94651.09
2022-07-29T20:03:59.731Z,94643.28
2022-07-29T20:06:01.435Z,94648.13
2022-07-29T20:08:04.880Z,94647.03
2022-07-29T20:10:06.877Z,94641.88
2022-07-29T20:12:09.584Z,94642.16
2022-07-29T20:14:11.338Z,94637.56
2022-07-29T20:16:13.117Z,94634.09
2022-07-29T20:18:16.085Z,94632.72
2022-07-29T20:20:17.795Z,94632.19
2022-07-29T20:22:20.978Z,94637.81
2022-07-29T20:24:23.272Z,94644.78
2022-07-29T20:26:24.903Z,94639.41
2022-07-29T20:28:26.633Z,94641.22
2022-07-29T20:30:28.290Z,94644.47
2022-07-29T20:32:31.136Z,94642.88
2022-07-29T20:34:32.935Z,94651.22
2022-07-29T20:36:34.538Z,94645.28
2022-07-29T20:38:36.277Z,94643.66
2022-07-29T20:40:39.538Z,94644.13
2022-07-29T20:42:41.191Z,94644.09
2022-07-29T20:44:42.913Z,94648.13
2022-07-29T20:46:45.547Z,94647.56
2022-07-29T20:48:47.426Z,94650.75
2022-07-29T20:50:49.191Z,94654.53
2022-07-29T20:52:51.760Z,94654.22
2022-07-29T20:54:53.454Z,94661.22
2022-07-29T20:56:55.117Z,94651.28
2022-07-29T20:58:56.841Z,94652.63
2022-07-29T21:00:58.524Z,94656.91
2022-07-29T21:03:01.801Z,94662.00
2022-07-29T21:05:03.686Z,94651.81
2022-07-29T21:07:06.242Z,94653.13
2022-07-29T21:09:07.913Z,94656.84
2022-07-29T21:11:09.891Z,94643.13
2022-07-29T21:13:11.707Z,94650.66
2022-07-29T21:15:17.505Z,94644.66
2022-07-29T21:17:22.658Z,94641.47
2022-07-29T21:19:24.440Z,94640.34
2022-07-29T21:21:26.959Z,94652.91
2022-07-29T21:23:28.608Z,94643.50
2022-07-29T21:25:30.239Z,94641.63
2022-07-29T21:27:50.612Z,94640.81
2022-07-29T21:29:52.354Z,94639.75
2022-07-29T21:31:53.983Z,94651.00
2022-07-29T21:33:55.834Z,94647.25
2022-07-29T21:38:21.933Z,94649.69
2022-07-29T21:40:23.622Z,94655.03
2022-07-29T21:42:25.408Z,94660.94
2022-07-29T21:44:27.238Z,94650.19
2022-07-29T21:46:29.043Z,94652.38
2022-07-29T21:48:30.786Z,94651.00
2022-07-29T21:50:33.171Z,94639.41
2022-07-29T21:52:34.858Z,94639.41
2022-07-29T21:54:39.122Z,94648.78
2022-07-29T21:56:40.721Z,94640.75
2022-07-29T21:58:43.469Z,94645.53
2022-07-29T22:00:45.478Z,94642.25
2022-07-29T22:02:47.965Z,94648.94
2022-07-29T22:04:50.646Z,94643.81
2022-07-29T22:06:52.414Z,94645.94
2022-07-29T22:08:54.056Z,94642.72
2022-07-29T22:10:55.692Z,94642.72
2022-07-29T22:12:58.981Z,94641.59
2022-07-29T22:15:02.262Z,94632.75
2022-07-29T22:17:04.207Z,94643.41
2022-07-29T22:19:05.927Z,94648.50
2022-07-29T22:21:07.959Z,94642.34
2022-07-29T22:23:09.623Z,94642.63
2022-07-29T22:25:11.533Z,94649.00
2022-07-29T22:27:13.800Z,94655.44
2022-07-29T22:29:17.714Z,94655.44
2022-07-29T22:31:19.453Z,94653.75
2022-07-29T22:33:21.156Z,94659.94
2022-07-29T22:35:22.787Z,94658.56
2022-07-29T22:37:24.454Z,94655.88
2022-07-29T22:39:26.187Z,94657.44
2022-07-29T22:41:27.877Z,94662.78
2022-07-29T22:43:29.638Z,94665.19
2022-07-29T22:45:31.396Z,94658.25
2022-07-29T22:47:46.422Z,94665.00
2022-07-29T22:49:50.252Z,94653.19
2022-07-29T22:51:51.928Z,94662.25
2022-07-29T22:53:53.690Z,94656.34
2022-07-29T22:55:55.380Z,94661.97
2022-07-29T22:57:57.036Z,94665.44
2022-07-29T23:00:01.642Z,94658.59
2022-07-29T23:02:03.611Z,94659.66
2022-07-29T23:04:06.162Z,94667.69
2022-07-29T23:06:08.230Z,94660.97
2022-07-29T23:08:09.845Z,94654.75
2022-07-29T23:10:11.935Z,94660.09
2022-07-29T23:12:13.656Z,94661.16
2022-07-29T23:14:15.300Z,94660.38
2022-07-29T23:16:26.296Z,94660.50
2022-07-29T23:18:28.721Z,94657.69
2022-07-29T23:20:30.522Z,94661.94
2022-07-29T23:22:32.161Z,94664.63
2022-07-29T23:24:33.833Z,94661.34
2022-07-29T23:26:36.934Z,94658.84
2022-07-29T23:28:38.599Z,94660.47
2022-07-29T23:30:41.619Z,94658.28
2022-07-29T23:32:43.278Z,94663.97
2022-07-29T23:34:44.887Z,94657.53
2022-07-29T23:36:46.791Z,94659.41
2022-07-29T23:38:48.561Z,94665.06
2022-07-29T23:40:50.825Z,94665.63
2022-07-29T23:42:52.550Z,94671.31
2022-07-29T23:44:54.238Z,94658.47
2022-07-29T23:46:55.966Z,94669.19
2022-07-29T23:48:57.663Z,94669.97
2022-07-29T23:51:01.215Z,94659.03
2022-07-29T23:53:02.927Z,94659.03
2022-07-29T23:55:36.686Z,94659.03
2022-07-29T23:57:27.413Z,94659.81
2022-07-29T23:59:29.034Z,94662.50
